69.3°F
Current conditions from King Hill
Updated every 5 minutes
 
  Sunday September 6, 2026

Observations for Westford

Westford

44° 37' 38"N, 73° 02' 30"W, Elevation 850 ft.
Eastern Time

Hourly observations for the last 72 hours

Date Time Temperature (°F) Humi-
dity

(%)
Wind
(mph)
Pressure Rain (in) Sun
(W/m2)
UV ET
(in)
Air Dew 6 Hour 1 Hr 3 Hr 6 Hr Day
Alt
(in)
Sea
Level

(mb)
Max Min
6 16:00 69.6 57.8 66 ENE 0 G 6 29.98 1015.4 0.00 635 0.0 0.065
6 15:00 70.4 59.3 68 NW 1 G 10 29.98 1015.4 0.00 696 0.0 0.050
6 14:00 69.8 60.8 69.8 53.3 73 WSW 1 G 9 30.00 1015.9 0.00 902 0.0 0.034
6 13:00 68.0 58.6 72 NNE 0 G 4 30.01 1016.2 0.00 795 0.0 0.020
6 12:00 65.4 59.1 80 NNE 0 G 5 30.02 1016.7 0.00 807 0.0 0.009
6 11:00 57.4 54.2 89 NNW 1 G 6 30.04 1017.3 0.00 199 0.0 0.006
6 10:00 56.3 54.3 93 NNW 0 G 4 30.03 1016.8 0.00 102 0.0 0.003
6 09:00 54.4 52.7 94 NNW 2 G 5 30.02 1016.5 0.00 158 0.0 0.001
6 08:00 53.4 51.7 55.5 53.2 94 NNW 0 G 5 30.01 1016.3 0.00 42 0.0 0.000
6 07:00 53.3 51.6 94 Calm 29.98 1015.4 0.00 7 0.0 0.000
6 06:00 53.8 52.1 94 Calm 29.97 1015.0 0.00 0 0.0 0.000
6 05:00 53.9 52.2 94 Calm 29.95 1014.4 0.00 0 0.0 0.000
6 04:00 54.1 52.1 93 Calm 29.94 1013.9 0.00 0 0.0 0.000
6 03:00 54.9 52.9 93 Calm 29.93 1013.6 0.00 0 0.0 0.000
6 02:00 55.5 53.5 60.5 55.4 93 Calm 29.93 1013.5 0.01 0.00 0 0.0 0.000
6 01:00 55.5 52.9 91 Calm 29.92 1013.3 0.00 0 0.0 0.000
6 00:00 56.2 53.3 90 Calm 29.92 1013.1 0.01 0 0.0 0.055
5 23:00 58.1 54.9 89 NE 0 G 4 29.90 1012.7 0.01 0.01 0.01 0 0.0 0.055
5 22:00 59.5 56.6 90 NNW 1 G 5 29.92 1013.2 0.00 0 0.0 0.055
5 21:00 60.1 57.2 90 NNW 0 G 1 29.91 1012.8 0.00 0 0.0 0.055
5 20:00 60.5 57.6 70.1 60.5 90 NNW 0 G 2 29.90 1012.4 0.00 0 0.0 0.055
5 19:00 61.6 58.0 88 NNW 1 G 5 29.89 1012.2 0.00 12 0.0 0.054
5 18:00 63.8 58.9 84 N 3 G 10 29.88 1012.0 0.00 49 0.0 0.052
5 17:00 67.5 61.5 81 NE 0 G 4 29.86 1011.2 0.00 130 0.0 0.046
5 16:00 68.5 62.1 80 NNE 0 G 5 29.85 1011.0 0.00 229 0.0 0.039
5 15:00 68.2 61.8 80 NNW 1 G 4 29.85 1011.0 0.00 236 0.0 0.035
5 14:00 69.7 62.9 70.8 59.9 79 W 3 G 10 29.85 1010.9 0.00 77 0.0 0.025
5 13:00 66.6 61.6 84 N 0 G 7 29.86 1011.1 0.00 285 0.0 0.021
5 12:00 69.2 62.1 78 N 1 G 11 29.86 1011.2 0.00 301 0.0 0.013
5 11:00 67.5 62.2 83 NW 1 G 4 29.86 1011.2 0.00 438 0.0 0.006
5 10:00 65.5 61.5 87 NW 0 G 3 29.85 1011.0 0.00 279 0.0 0.001
5 09:00 60.8 59.4 95 NNW 1 G 5 29.85 1010.8 0.00 83 0.0 0.000
5 08:00 60.0 58.6 60.5 59.3 95 N 1 G 5 29.84 1010.4 0.00 30 0.0 0.000
5 07:00 60.1 58.7 95 N 1 G 6 29.82 1009.9 0.00 5 0.0 0.000
5 06:00 60.4 59.0 95 NW 0 G 6 29.82 1009.7 0.00 0 0.0 0.000
5 05:00 60.4 59.0 95 Calm 29.81 1009.4 0.00 0 0.0 0.000
5 04:00 60.0 58.3 94 Calm 29.80 1009.2 0.00 0 0.0 0.000
5 03:00 59.5 57.8 94 Calm 29.80 1009.3 0.00 0 0.0 0.000
5 02:00 59.3 57.6 63.5 58.7 94 W 0 G 1 29.81 1009.3 0.00 0 0.0 0.000
5 01:00 59.1 57.1 93 W 0 G 1 29.80 1009.3 0.00 0 0.0 0.000
5 00:00 60.2 58.2 93 W 0 G 3 29.81 1009.3 0.08 0 0.0 0.070
4 23:00 60.4 58.1 92 WSW 0 G 3 29.81 1009.4 0.08 0 0.0 0.070
4 22:00 61.6 58.9 91 WSW 0 G 5 29.82 1009.8 0.08 0 0.0 0.070
4 21:00 62.8 59.8 90 SW 0 G 2 29.82 1009.7 0.08 0 0.0 0.070
4 20:00 63.4 60.1 75.8 63.4 89 SW 0 G 7 29.81 1009.4 0.08 0 0.0 0.070
4 19:00 66.4 61.8 85 Calm 29.81 1009.5 0.08 16 0.0 0.069
4 18:00 67.7 62.7 84 WSW 1 G 7 29.81 1009.3 0.08 69 0.0 0.067
4 17:00 70.1 63.6 80 Calm 29.80 1009.2 0.08 67 0.0 0.062
4 16:00 75.2 66.4 74 Calm 29.80 1009.1 0.08 139 0.0 0.052
4 15:00 72.6 66.1 80 Calm 29.80 1009.3 0.08 262 0.0 0.045
4 14:00 71.5 64.7 73.6 63.2 79 Calm 29.81 1009.6 0.08 320 0.0 0.038
4 13:00 71.2 65.1 81 Calm 29.81 1009.5 0.08 267 0.0 0.031
4 12:00 73.2 66.3 79 Calm 29.82 1009.9 0.08 424 0.0 0.020
4 11:00 70.8 65.4 83 Calm 29.82 1010.0 0.08 359 0.0 0.010
4 10:00 67.6 65.5 93 Calm 29.82 1010.0 0.08 297 0.0 0.004
4 09:00 64.4 63.2 96 SW 1 G 5 29.82 1010.0 0.08 220 0.0 0.001
4 08:00 63.2 62.3 63.2 59.2 97 Calm 29.83 1010.1 0.01 0.08 76 0.0 0.000
4 07:00 59.2 57.8 95 Calm 29.81 1009.6 0.08 21 0.0 0.000
4 06:00 60.1 58.7 95 SW 0 G 1 29.80 1009.0 0.08 0 0.0 0.000
4 05:00 60.4 58.7 94 Calm 29.79 1008.7 0.01 0.08 0 0.0 0.000
4 04:00 61.0 59.6 95 Calm 29.79 1008.7 0.08 0 0.0 0.000
4 03:00 61.9 60.2 94 Calm 29.78 1008.6 0.01 0.08 0 0.0 0.000
4 02:00 63.1 61.3 68.5 63.0 94 Calm 29.80 1009.0 0.07 0.07 0.07 0 0.0 0.000
4 01:00 64.0 62.2 94 Calm 29.80 1009.3 0.07 0.07 0 0.0 0.000
4 00:00 63.2 61.1 93 Calm 29.81 1009.7 0.49 0 0.0 0.099
3 23:00 63.7 61.6 93 Calm 29.81 1009.5 0.48 0 0.0 0.099
3 22:00 64.1 61.4 91 Calm 29.82 1009.8 0.48 0 0.0 0.099
3 21:00 65.3 62.3 90 SW 0 G 1 29.82 1009.9 0.48 0 0.0 0.099
3 20:00 68.5 64.8 81.8 68.5 88 Calm 29.80 1009.1 0.48 0 0.0 0.099
3 19:00 71.2 66.8 86 Calm 29.79 1008.9 0.48 19 0.0 0.098
3 18:00 76.3 68.9 78 SW 2 G 4 29.80 1009.0 0.48 37 0.0 0.094
3 17:00 79.5 69.3 71 Calm 29.78 1008.6 0.48 65 0.0 0.087

Data generated by WxSolution Version 1.9.1.9, Build 2022.03.27.


 
 
Current Radar Loop:

Sun Position

Copyright © WestfordWeather.net 2007-2026. All rights reserved.